createdAt,value
2023-06-30T00:01:55.032Z,76.60
2023-06-30T00:06:00.582Z,76.90
2023-06-30T00:10:07.973Z,77.00
2023-06-30T00:14:13.485Z,76.90
2023-06-30T00:18:18.991Z,76.90
2023-06-30T00:22:24.531Z,76.80
2023-06-30T00:26:32.852Z,76.80
2023-06-30T00:30:39.422Z,76.80
2023-06-30T00:34:44.994Z,76.90
2023-06-30T00:38:55.890Z,75.40
2023-06-30T00:43:02.062Z,74.90
2023-06-30T00:47:07.790Z,74.20
2023-06-30T00:51:13.875Z,74.20
2023-06-30T00:55:19.888Z,74.10
2023-06-30T00:59:25.401Z,73.70
2023-06-30T01:04:02.481Z,73.80
2023-06-30T01:08:29.543Z,73.80
2023-06-30T01:12:36.255Z,74.10
2023-06-30T01:16:43.474Z,74.10
2023-06-30T01:20:49.977Z,74.40
2023-06-30T01:25:01.251Z,74.40
2023-06-30T01:29:08.004Z,75.30
2023-06-30T01:33:15.280Z,76.00
2023-06-30T01:37:20.844Z,76.40
2023-06-30T01:41:26.704Z,76.60
2023-06-30T01:45:33.101Z,76.70
2023-06-30T01:49:39.257Z,76.80
2023-06-30T01:53:44.811Z,76.80
2023-06-30T01:57:50.409Z,76.80
2023-06-30T02:01:56.025Z,76.80
2023-06-30T02:06:01.935Z,76.80
2023-06-30T02:10:08.755Z,76.80
2023-06-30T02:14:14.250Z,76.80
2023-06-30T02:18:19.997Z,76.80
2023-06-30T02:22:25.554Z,76.80
2023-06-30T02:26:31.018Z,76.70
2023-06-30T02:30:36.511Z,76.70
2023-06-30T02:34:42.004Z,76.60
2023-06-30T02:38:47.517Z,76.60
2023-06-30T02:42:54.529Z,76.60
2023-06-30T02:47:00.022Z,76.70
2023-06-30T02:51:05.659Z,76.90
2023-06-30T02:55:11.608Z,77.20
2023-06-30T02:59:17.097Z,77.30
2023-06-30T03:03:22.641Z,77.40
2023-06-30T03:07:28.272Z,77.30
2023-06-30T03:11:33.830Z,77.20
2023-06-30T03:15:39.344Z,77.30
2023-06-30T03:19:44.855Z,77.30
2023-06-30T03:23:50.361Z,77.40
2023-06-30T03:27:55.930Z,77.30
2023-06-30T03:32:01.403Z,77.40
2023-06-30T03:36:07.026Z,77.40
2023-06-30T03:40:13.784Z,77.30
2023-06-30T03:44:19.341Z,77.50
2023-06-30T03:48:25.746Z,77.50
2023-06-30T03:52:31.297Z,77.30
2023-06-30T03:56:36.825Z,77.40
2023-06-30T04:00:42.314Z,77.60
2023-06-30T04:04:47.964Z,77.70
2023-06-30T04:08:53.519Z,77.70
2023-06-30T04:12:58.981Z,77.60
2023-06-30T04:17:04.930Z,77.80
2023-06-30T04:21:10.572Z,77.80
2023-06-30T04:25:16.105Z,77.70
2023-06-30T04:29:21.585Z,77.80
2023-06-30T04:33:27.082Z,77.80
2023-06-30T04:37:32.640Z,77.60
2023-06-30T04:41:38.722Z,77.40
2023-06-30T04:45:44.483Z,77.30
2023-06-30T04:49:50.139Z,77.10
2023-06-30T04:53:55.851Z,76.90
2023-06-30T04:58:01.391Z,76.90
2023-06-30T05:02:07.608Z,76.80
2023-06-30T05:06:13.131Z,76.40
2023-06-30T05:10:18.637Z,76.50
2023-06-30T05:14:24.146Z,76.40
2023-06-30T05:18:29.659Z,76.20
2023-06-30T05:22:36.122Z,75.70
2023-06-30T05:26:42.245Z,75.70
2023-06-30T05:30:47.704Z,75.40
2023-06-30T05:34:53.288Z,75.00
2023-06-30T05:38:59.035Z,75.80
2023-06-30T05:43:04.581Z,75.20
2023-06-30T05:47:10.090Z,74.90
2023-06-30T05:51:15.556Z,75.10
2023-06-30T05:55:21.087Z,74.60
2023-06-30T05:59:29.198Z,74.10
2023-06-30T06:03:34.888Z,73.90
2023-06-30T06:07:41.607Z,73.70
2023-06-30T06:11:47.217Z,73.60
2023-06-30T06:15:52.705Z,73.60
2023-06-30T06:19:59.040Z,73.70
2023-06-30T06:24:04.947Z,73.30
2023-06-30T06:28:10.507Z,73.60
2023-06-30T06:32:19.917Z,73.60
2023-06-30T06:36:25.465Z,73.00
2023-06-30T06:40:31.007Z,73.70
2023-06-30T06:44:37.763Z,73.80
2023-06-30T06:48:43.910Z,73.60
2023-06-30T06:52:49.438Z,73.60
2023-06-30T06:56:54.930Z,73.60
2023-06-30T07:01:00.690Z,73.70
2023-06-30T07:05:06.449Z,73.50
2023-06-30T07:09:11.935Z,73.60
2023-06-30T07:13:20.305Z,72.80
2023-06-30T07:17:25.913Z,73.30
2023-06-30T07:21:32.761Z,72.60
2023-06-30T07:25:38.295Z,72.40
2023-06-30T07:29:43.802Z,72.20
2023-06-30T07:33:49.291Z,71.90
2023-06-30T07:37:55.052Z,72.10
2023-06-30T07:42:00.824Z,71.80
2023-06-30T07:46:06.390Z,71.70
2023-06-30T07:50:14.208Z,71.30
2023-06-30T07:54:20.786Z,71.60
2023-06-30T07:58:26.610Z,71.50
2023-06-30T08:02:32.350Z,70.80
2023-06-30T08:06:37.971Z,71.00
2023-06-30T08:10:44.906Z,70.10
2023-06-30T08:14:51.441Z,70.40
2023-06-30T08:18:57.053Z,69.80
2023-06-30T08:23:02.671Z,69.20
2023-06-30T08:27:08.603Z,68.90
2023-06-30T08:31:14.164Z,68.60
2023-06-30T08:35:19.882Z,67.50
2023-06-30T08:39:32.481Z,67.40
2023-06-30T08:43:42.369Z,67.60
2023-06-30T08:47:47.922Z,66.80
2023-06-30T08:51:57.488Z,66.90
2023-06-30T08:56:05.389Z,67.10
2023-06-30T09:00:11.552Z,66.20
2023-06-30T09:04:17.394Z,65.90
2023-06-30T09:08:50.947Z,64.60
2023-06-30T09:12:58.519Z,62.40
2023-06-30T09:17:04.444Z,63.10
2023-06-30T09:21:11.597Z,63.60
2023-06-30T09:25:29.100Z,63.40
2023-06-30T09:29:37.458Z,61.40
2023-06-30T09:33:44.544Z,62.40
2023-06-30T09:37:50.157Z,61.60
2023-06-30T09:41:55.767Z,60.80
2023-06-30T09:46:02.898Z,59.10
2023-06-30T09:50:10.292Z,58.30
2023-06-30T09:54:25.983Z,58.70
2023-06-30T09:58:41.174Z,57.10
2023-06-30T10:02:46.739Z,55.00
2023-06-30T10:06:53.885Z,56.20
2023-06-30T10:10:59.646Z,53.90
2023-06-30T10:15:10.247Z,54.80
2023-06-30T10:19:16.737Z,53.30
2023-06-30T10:23:24.941Z,51.80
2023-06-30T10:27:30.961Z,50.40
2023-06-30T10:31:36.736Z,50.50
2023-06-30T10:35:43.269Z,49.80
2023-06-30T10:39:49.055Z,49.30
2023-06-30T10:44:09.772Z,49.60
2023-06-30T10:48:15.876Z,49.10
2023-06-30T10:52:29.478Z,48.60
2023-06-30T10:56:35.082Z,46.80
2023-06-30T11:01:07.325Z,48.90
2023-06-30T11:05:21.819Z,47.40
2023-06-30T11:09:27.329Z,47.10
2023-06-30T11:13:39.170Z,46.30
2023-06-30T11:17:53.298Z,45.90
2023-06-30T11:22:33.082Z,47.20
2023-06-30T11:26:40.299Z,44.60
2023-06-30T11:30:46.024Z,45.10
2023-06-30T11:34:52.025Z,44.00
2023-06-30T11:38:57.540Z,43.40
2023-06-30T11:43:04.414Z,43.60
2023-06-30T11:47:10.022Z,44.70
2023-06-30T11:51:15.858Z,43.20
2023-06-30T11:55:22.000Z,42.70
2023-06-30T11:59:28.457Z,40.80
2023-06-30T12:03:34.269Z,41.70
2023-06-30T12:07:39.965Z,41.20
2023-06-30T12:11:51.529Z,41.10
2023-06-30T12:15:58.318Z,40.40
2023-06-30T12:20:05.359Z,40.50
2023-06-30T12:24:20.099Z,40.40
2023-06-30T12:28:25.594Z,40.10
2023-06-30T12:32:32.292Z,40.40
2023-06-30T12:36:37.837Z,40.40
2023-06-30T12:40:43.427Z,39.20
2023-06-30T12:44:48.932Z,39.80
2023-06-30T12:48:54.424Z,39.00
2023-06-30T12:53:01.740Z,41.00
2023-06-30T12:57:07.876Z,40.00
2023-06-30T13:01:13.567Z,40.20
2023-06-30T13:05:19.270Z,40.20
2023-06-30T13:09:24.806Z,39.40
2023-06-30T13:13:30.325Z,40.10
2023-06-30T13:17:35.842Z,40.40
2023-06-30T13:21:41.487Z,39.00
2023-06-30T13:25:47.291Z,38.40
2023-06-30T13:29:53.557Z,39.10
2023-06-30T13:33:59.105Z,39.50
2023-06-30T13:38:04.614Z,38.80
2023-06-30T13:42:10.817Z,38.30
2023-06-30T13:46:16.421Z,37.90
2023-06-30T13:50:21.998Z,37.70
2023-06-30T13:54:27.556Z,38.60
2023-06-30T13:58:33.200Z,38.30
2023-06-30T14:02:38.704Z,38.60
2023-06-30T14:06:44.315Z,40.10
2023-06-30T14:10:49.887Z,40.70
2023-06-30T14:14:55.401Z,40.70
2023-06-30T14:19:02.643Z,40.10
2023-06-30T14:23:08.159Z,39.60
2023-06-30T14:27:13.669Z,39.80
2023-06-30T14:31:19.362Z,40.30
2023-06-30T14:35:24.918Z,39.70
2023-06-30T14:39:30.765Z,39.80
2023-06-30T14:43:36.328Z,38.40
2023-06-30T14:47:42.360Z,38.30
2023-06-30T14:51:48.416Z,38.70
2023-06-30T14:55:53.950Z,38.00
2023-06-30T14:59:59.519Z,38.60
2023-06-30T15:04:05.395Z,38.00
2023-06-30T15:08:11.060Z,38.20
2023-06-30T15:12:16.571Z,38.80
2023-06-30T15:16:22.127Z,39.20
2023-06-30T15:20:28.429Z,39.00
2023-06-30T15:24:35.491Z,39.10
2023-06-30T15:28:41.039Z,39.60
2023-06-30T15:32:46.675Z,40.20
2023-06-30T15:36:52.271Z,39.20
2023-06-30T15:40:59.936Z,38.80
2023-06-30T15:45:09.831Z,40.10
2023-06-30T15:49:15.357Z,40.50
2023-06-30T15:53:20.855Z,40.70
2023-06-30T15:57:26.400Z,41.40
2023-06-30T16:01:32.031Z,40.20
2023-06-30T16:05:37.710Z,39.80
2023-06-30T16:09:43.231Z,39.10
2023-06-30T16:13:48.944Z,38.10
2023-06-30T16:17:54.589Z,38.40
2023-06-30T16:22:00.125Z,37.90
2023-06-30T16:26:05.655Z,38.30
2023-06-30T16:30:26.057Z,37.60
2023-06-30T16:34:33.769Z,37.40
2023-06-30T16:38:40.740Z,38.90
2023-06-30T16:42:46.754Z,38.90
2023-06-30T16:46:52.305Z,39.10
2023-06-30T16:50:57.840Z,39.00
2023-06-30T16:55:04.636Z,39.50
2023-06-30T16:59:10.148Z,41.00
2023-06-30T17:03:15.723Z,41.00
2023-06-30T17:07:21.626Z,39.80
2023-06-30T17:11:27.497Z,38.20
2023-06-30T17:15:33.920Z,37.90
2023-06-30T17:19:39.754Z,39.00
2023-06-30T17:23:45.209Z,38.20
2023-06-30T17:27:51.031Z,38.40
2023-06-30T17:31:56.569Z,39.00
2023-06-30T17:36:02.080Z,38.90
2023-06-30T17:40:08.873Z,39.10
2023-06-30T17:44:14.345Z,38.70
2023-06-30T17:48:19.837Z,38.80
2023-06-30T17:52:25.318Z,39.80
2023-06-30T17:56:30.793Z,38.90
2023-06-30T18:00:36.317Z,39.10
2023-06-30T18:04:41.936Z,39.00
2023-06-30T18:08:47.583Z,39.50
2023-06-30T18:12:59.959Z,39.60
2023-06-30T18:17:06.572Z,39.80
2023-06-30T18:21:12.894Z,40.20
2023-06-30T18:25:18.582Z,40.40
2023-06-30T18:29:24.860Z,40.80
2023-06-30T18:33:30.469Z,40.90
2023-06-30T18:37:36.050Z,41.40
2023-06-30T18:41:41.702Z,42.60
2023-06-30T18:45:47.387Z,42.20
2023-06-30T18:49:53.146Z,42.60
2023-06-30T18:53:58.682Z,42.50
2023-06-30T18:58:04.222Z,42.90
2023-06-30T19:02:09.913Z,43.20
2023-06-30T19:06:15.926Z,43.30
2023-06-30T19:10:21.445Z,43.30
2023-06-30T19:14:27.268Z,43.30
2023-06-30T19:18:32.765Z,43.30
2023-06-30T19:22:38.308Z,44.00
2023-06-30T19:26:43.801Z,44.00
2023-06-30T19:30:50.451Z,44.60
2023-06-30T19:34:55.985Z,44.70
2023-06-30T19:39:01.491Z,46.00
2023-06-30T19:43:06.972Z,45.10
2023-06-30T19:47:12.510Z,44.70
2023-06-30T19:51:18.093Z,44.80
2023-06-30T19:55:23.662Z,45.00
2023-06-30T19:59:29.147Z,45.50
2023-06-30T20:03:34.837Z,45.60
2023-06-30T20:07:40.859Z,46.00
2023-06-30T20:11:46.788Z,45.90
2023-06-30T20:15:52.306Z,46.00
2023-06-30T20:19:57.868Z,45.10
2023-06-30T20:24:03.458Z,45.20
2023-06-30T20:28:08.988Z,46.20
2023-06-30T20:32:14.551Z,47.40
2023-06-30T20:36:20.110Z,48.10
2023-06-30T20:40:25.708Z,48.30
2023-06-30T20:44:31.392Z,48.80
2023-06-30T20:48:37.025Z,49.00
2023-06-30T20:52:42.535Z,49.40
2023-06-30T20:56:48.408Z,49.80
2023-06-30T21:00:53.917Z,50.20
2023-06-30T21:04:59.633Z,50.70
2023-06-30T21:09:06.254Z,51.70
2023-06-30T21:13:11.797Z,51.10
2023-06-30T21:17:17.340Z,51.60
2023-06-30T21:21:22.859Z,52.00
2023-06-30T21:25:28.377Z,52.40
2023-06-30T21:29:33.879Z,52.80
2023-06-30T21:33:39.361Z,53.20
2023-06-30T21:37:44.864Z,53.50
2023-06-30T21:41:50.339Z,53.00
2023-06-30T21:45:58.881Z,53.50
2023-06-30T21:50:05.052Z,53.30
2023-06-30T21:54:10.552Z,53.80
2023-06-30T21:58:26.696Z,54.90
2023-06-30T22:02:33.640Z,55.40
2023-06-30T22:06:39.280Z,55.80
2023-06-30T22:10:45.116Z,55.80
2023-06-30T22:14:50.840Z,55.10
2023-06-30T22:18:56.372Z,55.30
2023-06-30T22:23:02.446Z,55.10
2023-06-30T22:27:07.943Z,55.40
2023-06-30T22:31:13.478Z,55.40
2023-06-30T22:35:19.303Z,54.90
2023-06-30T22:39:24.720Z,55.50
2023-06-30T22:43:30.029Z,56.20
2023-06-30T22:47:35.792Z,57.10
2023-06-30T22:51:41.158Z,57.70
2023-06-30T22:55:48.465Z,58.00
2023-06-30T22:59:54.336Z,57.00
2023-06-30T23:03:59.889Z,57.90
2023-06-30T23:08:05.618Z,57.50
2023-06-30T23:12:11.214Z,57.70
2023-06-30T23:16:16.755Z,58.40
2023-06-30T23:20:24.998Z,58.60
2023-06-30T23:24:30.687Z,58.70
2023-06-30T23:28:36.240Z,58.70
2023-06-30T23:32:47.277Z,59.10
2023-06-30T23:36:53.289Z,59.30
2023-06-30T23:40:58.821Z,59.60
2023-06-30T23:45:04.720Z,59.70
2023-06-30T23:49:10.166Z,60.00
2023-06-30T23:53:15.725Z,60.30
2023-06-30T23:57:21.255Z,60.80
